| time (UTC) | temp F | wind direction | speed MPH | gust MPH | rain 1hr in | rain 24hr in | rain mn in | humidity % | barometer mb |
| 20260507193504 | 52 | 163 | 0.0 | 3.0 | 0.00 | 0.00 | 0.00 | 74 | 1013.8 |
| 20260507190504 | 55 | 163 | 0.0 | 2.0 | 0.00 | 0.00 | 0.00 | 71 | 1013.7 |
| 20260507190005 | 55 | 163 | 0.0 | 3.0 | 0.00 | 0.00 | 0.00 | 70 | 1013.7 |
| 20260507183504 | 55 | 163 | 2.0 | 5.0 | 0.00 | 0.00 | 0.00 | 71 | 1013.7 |
| 20260507180005 | 56 | 167 | 3.0 | 7.0 | 0.00 | 0.00 | 0.00 | 70 | 1013.5 |
| 20260507170504 | 57 | 176 | 1.0 | 7.0 | 0.00 | 0.00 | 0.00 | 68 | 1013.3 |
| 20260507170009 | 58 | 159 | 2.0 | 6.0 | 0.00 | 0.00 | 0.00 | 67 | 1013.4 |
| 20260507163504 | 58 | 166 | 4.0 | 7.0 | 0.00 | 0.00 | 0.00 | 64 | 1013.2 |
| 20260507163005 | 58 | 166 | 3.0 | 7.0 | 0.00 | 0.00 | 0.00 | 62 | 1013.3 |
| 20260507160005 | 58 | 174 | 1.0 | 5.0 | 0.00 | 0.00 | 0.00 | 66 | 1013.4 |
| 20260507150006 | 59 | 179 | 3.0 | 12.0 | 0.00 | 0.00 | 0.00 | 67 | 1013.7 |
| 20260507143005 | 59 | 191 | 5.0 | 9.0 | 0.00 | 0.00 | 0.00 | 62 | 1013.6 |
| 20260507140504 | 60 | 190 | 4.0 | 12.0 | 0.00 | 0.00 | 0.00 | 64 | 1013.7 |
| 20260507133504 | 61 | 27 | 1.0 | 5.0 | 0.00 | 0.00 | 0.00 | 46 | 1013.7 |
| 20260507130504 | 61 | 27 | 1.0 | 5.0 | 0.00 | 0.00 | 0.00 | 48 | 1013.8 |
| 20260507130004 | 61 | 26 | 0.0 | 3.0 | 0.00 | 0.00 | 0.00 | 50 | 1013.8 |
| 20260507120504 | 64 | 27 | 2.0 | 6.0 | 0.00 | 0.00 | 0.00 | 45 | 1013.8 |
| 20260507113504 | 62 | 34 | 1.0 | 3.0 | 0.00 | 0.00 | 0.00 | 48 | 1013.9 |
| 20260507110504 | 63 | 197 | 4.0 | 6.0 | 0.00 | 0.00 | 0.00 | 48 | 1014.1 |
| 20260507110005 | 63 | 196 | 1.0 | 3.0 | 0.00 | 0.00 | 0.00 | 50 | 1014.1 |
| 20260507103007 | 62 | 137 | 2.0 | 5.0 | 0.00 | 0.00 | 0.00 | 53 | 1014.2 |
| 20260507090006 | 58 | 155 | 1.0 | 3.0 | 0.00 | 0.00 | 0.00 | 67 | 1014.5 |
| 20260507083005 | 56 | 162 | 3.0 | 6.0 | 0.00 | 0.00 | 0.00 | 72 | 1014.6 |
| 20260507080005 | 52 | 10 | 2.0 | 5.0 | 0.00 | 0.00 | 0.00 | 85 | 1014.7 |
| 20260507073504 | 47 | 10 | 0.0 | 1.0 | 0.00 | 0.00 | 0.00 | 91 | 1014.7 |
| 20260507073006 | 47 | 15 | 0.0 | 0.0 | 0.00 | 0.00 | 0.00 | 93 | 1014.7 |
| 20260507070504 | 42 | 15 | 0.0 | 0.0 | 0.00 | 0.00 | 0.00 | 95 | 1014.7 |
| 20260507063005 | 39 | 15 | 0.0 | 0.0 | 0.00 | 0.00 | 0.00 | 96 | 1014.8 |
| 20260507053504 | 33 | 15 | 0.0 | 0.0 | 0.00 | 0.00 | 0.00 | 93 | 1014.3 |
| 20260507050005 | 31 | 15 | 0.0 | 0.0 | 0.00 | 0.00 | 0.00 | 91 | 1014.2 |
| 20260507043504 | 31 | 15 | 0.0 | 0.0 | 0.00 | 0.00 | 0.00 | 90 | 1014.2 |
| 20260507043004 | 31 | 15 | 0.0 | 0.0 | 0.00 | 0.00 | 0.00 | 90 | 1014.1 |
| 20260507040004 | 31 | 15 | 0.0 | 0.0 | 0.00 | 0.00 | 0.00 | 90 | 1014.2 |
| 20260507033504 | 32 | 15 | 0.0 | 0.0 | 0.00 | 0.00 | 0.00 | 90 | 1014.1 |
| 20260507033004 | 32 | 15 | 0.0 | 0.0 | 0.00 | 0.00 | 0.00 | 90 | 1014.1 |
| 20260507030005 | 33 | 15 | 0.0 | 0.0 | 0.00 | 0.00 | 0.00 | 90 | 1014.1 |
| 20260507020504 | 34 | 15 | 0.0 | 0.0 | 0.00 | 0.00 | 0.00 | 89 | 1013.8 |
| 20260507013004 | 35 | 15 | 0.0 | 0.0 | 0.00 | 0.00 | 0.00 | 88 | 1013.7 |
| 20260507010504 | 35 | 15 | 0.0 | 0.0 | 0.00 | 0.00 | 0.00 | 88 | 1013.7 |
| 20260507003504 | 36 | 15 | 0.0 | 0.0 | 0.00 | 0.00 | 0.00 | 87 | 1013.7 |
| 20260507003004 | 37 | 15 | 0.0 | 0.0 | 0.00 | 0.00 | 0.00 | 87 | 1013.8 |
| 20260507000004 | 38 | 15 | 0.0 | 0.0 | 0.00 | 0.00 | 0.00 | 86 | 1013.8 |
| 20260506233504 | 39 | 15 | 0.0 | 0.0 | 0.00 | 0.00 | 0.00 | 84 | 1013.6 |
| 20260506230504 | 41 | 15 | 0.0 | 0.0 | 0.00 | 0.00 | 0.00 | 83 | 1013.4 |
| 20260506230005 | 41 | 15 | 0.0 | 0.0 | 0.00 | 0.00 | 0.00 | 82 | 1013.4 |
| 20260506223504 | 44 | 15 | 0.0 | 0.0 | 0.00 | 0.00 | 0.00 | 81 | 1013.5 |
| 20260506223005 | 44 | 15 | 0.0 | 0.0 | 0.00 | 0.00 | 0.00 | 79 | 1013.5 |
| 20260506220504 | 46 | 15 | 0.0 | 0.0 | 0.00 | 0.00 | 0.00 | 76 | 1013.2 |
| 20260506213504 | 49 | 15 | 0.0 | 0.0 | 0.00 | 0.00 | 0.00 | 73 | 1013.2 |
| 20260506210004 | 51 | 15 | 1.0 | 5.0 | 0.00 | 0.00 | 0.00 | 69 | 1013.0 |